Terminal Aerodrome Forecast
Issued by NWS

Home | Current Version | Previous Version | Text Only | Print | Product List | Glossary On
Versions: 1 2 3 4 5 6 7 8 9 10 11 12 13
000
FTUS45 KRIW 292300
TAFCPR
TAF
KCPR 292332Z 3000/3024 26007KT P6SM FEW100 SCT120
     FM300200 09008KT P6SM SCT120
     FM300800 22010KT P6SM FEW120
     FM301500 22022G32KT P6SM FEW080 SCT120
     FM301900 22025G35KT P6SM VCTS SCT080CB BKN120=

USA.gov is the U.S. government's official web portal to all federal, state and local government web resources and services.